createdAt,value
2022-08-20T00:01:02.036Z,22.08
2022-08-20T00:03:35.643Z,22.16
2022-08-20T00:06:06.705Z,22.17
2022-08-20T00:08:33.154Z,22.15
2022-08-20T00:11:01.176Z,22.16
2022-08-20T00:13:33.811Z,22.16
2022-08-20T00:16:00.291Z,22.08
2022-08-20T00:18:27.122Z,22.09
2022-08-20T00:20:55.748Z,22.10
2022-08-20T00:23:23.495Z,22.08
2022-08-20T00:25:51.614Z,22.07
2022-08-20T00:28:18.284Z,22.08
2022-08-20T00:30:45.734Z,22.03
2022-08-20T00:33:16.144Z,22.03
2022-08-20T00:35:46.506Z,22.06
2022-08-20T00:38:13.090Z,22.06
2022-08-20T00:40:45.109Z,22.10
2022-08-20T00:43:30.274Z,22.08
2022-08-20T00:45:57.904Z,22.04
2022-08-20T00:48:27.538Z,21.98
2022-08-20T00:50:59.291Z,22.00
2022-08-20T00:53:26.850Z,21.98
2022-08-20T00:55:53.316Z,21.99
2022-08-20T00:58:19.808Z,21.99
2022-08-20T01:00:47.752Z,22.00
2022-08-20T01:03:16.625Z,22.00
2022-08-20T01:05:47.898Z,21.95
2022-08-20T01:08:17.198Z,21.92
2022-08-20T01:10:48.310Z,21.92
2022-08-20T01:13:20.389Z,21.89
2022-08-20T01:15:49.438Z,21.89
2022-08-20T01:18:19.619Z,21.92
2022-08-20T01:20:54.269Z,21.92
2022-08-20T01:23:49.964Z,21.95
2022-08-20T01:26:22.928Z,21.86
2022-08-20T01:28:52.287Z,21.84
2022-08-20T01:31:22.555Z,21.87
2022-08-20T01:33:50.949Z,21.83
2022-08-20T01:36:22.445Z,21.84
2022-08-20T01:38:53.122Z,21.75
2022-08-20T01:41:28.269Z,21.71
2022-08-20T01:43:57.093Z,21.62
2022-08-20T01:46:27.559Z,21.58
2022-08-20T01:48:55.478Z,21.55
2022-08-20T01:51:30.114Z,21.57
2022-08-20T01:53:59.829Z,21.56
2022-08-20T01:56:30.273Z,21.53
2022-08-20T01:58:59.626Z,21.47
2022-08-20T02:01:46.512Z,21.50
2022-08-20T02:04:15.157Z,21.49
2022-08-20T02:06:56.717Z,21.52
2022-08-20T02:09:28.961Z,21.49
2022-08-20T02:11:56.495Z,21.44
2022-08-20T02:14:23.764Z,21.44
2022-08-20T02:16:55.225Z,21.38
2022-08-20T02:19:45.486Z,21.40
2022-08-20T02:22:22.178Z,21.42
2022-08-20T02:24:48.665Z,21.43
2022-08-20T02:27:15.668Z,21.45
2022-08-20T02:29:42.158Z,21.42
2022-08-20T02:32:24.422Z,21.41
2022-08-20T02:34:55.447Z,21.39
2022-08-20T02:37:21.858Z,21.40
2022-08-20T02:39:48.275Z,21.37
2022-08-20T02:42:14.743Z,21.29
2022-08-20T02:44:41.223Z,21.28
2022-08-20T02:47:07.684Z,21.31
2022-08-20T02:49:34.853Z,21.34
2022-08-20T02:52:01.414Z,21.35
2022-08-20T02:54:29.131Z,21.37
2022-08-20T02:56:55.907Z,21.38
2022-08-20T02:59:22.419Z,21.40
2022-08-20T03:02:00.338Z,21.42
2022-08-20T03:04:29.213Z,21.44
2022-08-20T03:06:55.784Z,21.43
2022-08-20T03:09:22.213Z,21.39
2022-08-20T03:11:48.794Z,21.38
2022-08-20T03:14:15.190Z,21.37
2022-08-20T03:16:41.553Z,21.36
2022-08-20T03:19:08.526Z,21.33
2022-08-20T03:21:35.235Z,21.34
2022-08-20T03:24:01.603Z,21.35
2022-08-20T03:26:28.006Z,21.38
2022-08-20T03:28:54.387Z,21.33
2022-08-20T03:31:20.845Z,21.38
2022-08-20T03:33:52.942Z,21.39
2022-08-20T03:36:22.211Z,21.39
2022-08-20T03:38:56.785Z,21.34
2022-08-20T03:41:24.303Z,21.30
2022-08-20T03:43:51.342Z,21.25
2022-08-20T03:46:23.624Z,21.24
2022-08-20T03:48:59.806Z,21.25
2022-08-20T03:51:31.059Z,21.25
2022-08-20T03:53:58.060Z,21.24
2022-08-20T03:56:24.552Z,21.20
2022-08-20T03:58:51.288Z,21.20
2022-08-20T04:01:44.543Z,21.12
2022-08-20T04:04:04.521Z,21.12
2022-08-20T04:06:30.902Z,21.05
2022-08-20T04:08:57.695Z,21.05
2022-08-20T04:11:24.414Z,21.05
2022-08-20T04:13:51.002Z,20.96
2022-08-20T04:16:18.034Z,20.99
2022-08-20T04:18:57.235Z,21.07
2022-08-20T04:21:33.564Z,21.06
2022-08-20T04:24:02.413Z,21.08
2022-08-20T04:26:29.736Z,21.05
2022-08-20T04:28:56.199Z,21.03
2022-08-20T04:31:33.866Z,21.01
2022-08-20T04:34:07.900Z,21.03
2022-08-20T04:36:35.158Z,20.96
2022-08-20T04:39:01.666Z,20.94
2022-08-20T04:41:28.085Z,20.88
2022-08-20T04:43:55.972Z,20.91
2022-08-20T04:46:25.499Z,20.93
2022-08-20T04:48:52.200Z,20.88
2022-08-20T04:51:19.350Z,20.96
2022-08-20T04:53:52.196Z,20.93
2022-08-20T04:56:23.975Z,20.92
2022-08-20T04:58:52.340Z,20.90
2022-08-20T05:01:18.759Z,20.94
2022-08-20T05:03:47.600Z,20.87
2022-08-20T05:06:16.022Z,20.91
2022-08-20T05:08:42.414Z,20.92
2022-08-20T05:11:34.539Z,20.88
2022-08-20T05:13:56.058Z,20.83
2022-08-20T05:16:24.008Z,20.84
2022-08-20T05:18:52.801Z,20.83
2022-08-20T05:21:20.929Z,20.79
2022-08-20T05:23:49.070Z,20.82
2022-08-20T05:26:15.949Z,20.82
2022-08-20T05:28:57.079Z,20.81
2022-08-20T05:31:31.734Z,20.83
2022-08-20T05:34:10.346Z,20.79
2022-08-20T05:36:40.239Z,20.77
2022-08-20T05:39:07.103Z,20.66
2022-08-20T05:41:33.899Z,20.60
2022-08-20T05:44:03.441Z,20.61
2022-08-20T05:46:31.852Z,20.62
2022-08-20T05:49:00.257Z,20.57
2022-08-20T05:51:28.293Z,20.57
2022-08-20T05:53:54.815Z,20.54
2022-08-20T05:56:26.770Z,20.56
2022-08-20T05:58:54.195Z,20.53
2022-08-20T06:01:20.921Z,20.52
2022-08-20T06:04:06.020Z,20.50
2022-08-20T06:06:45.047Z,20.51
2022-08-20T06:09:27.997Z,20.53
2022-08-20T06:12:09.203Z,20.51
2022-08-20T06:14:36.204Z,20.50
2022-08-20T06:17:05.410Z,20.54
2022-08-20T06:19:33.289Z,20.56
2022-08-20T06:22:00.595Z,20.51
2022-08-20T06:24:27.176Z,20.45
2022-08-20T06:27:02.659Z,20.47
2022-08-20T06:29:29.751Z,20.41
2022-08-20T06:31:56.722Z,20.44
2022-08-20T06:34:24.463Z,20.43
2022-08-20T06:36:50.831Z,20.46
2022-08-20T06:39:17.308Z,20.49
2022-08-20T06:41:43.948Z,20.53
2022-08-20T06:44:10.505Z,20.61
2022-08-20T06:46:37.937Z,20.66
2022-08-20T06:49:06.883Z,20.72
2022-08-20T06:51:34.154Z,20.74
2022-08-20T06:54:00.755Z,20.80
2022-08-20T06:56:27.147Z,20.84
2022-08-20T06:58:53.506Z,20.89
2022-08-20T07:01:21.114Z,20.91
2022-08-20T07:03:55.679Z,20.98
2022-08-20T07:06:25.237Z,21.02
2022-08-20T07:08:51.881Z,20.96
2022-08-20T07:11:18.571Z,20.96
2022-08-20T07:13:45.348Z,20.90
2022-08-20T07:16:12.158Z,20.87
2022-08-20T07:18:38.618Z,20.86
2022-08-20T07:21:05.156Z,20.88
2022-08-20T07:23:31.721Z,20.88
2022-08-20T07:25:58.297Z,20.88
2022-08-20T07:28:28.825Z,20.92
2022-08-20T07:31:16.131Z,20.90
2022-08-20T07:33:44.339Z,20.89
2022-08-20T07:36:12.451Z,20.86
2022-08-20T07:38:39.065Z,20.85
2022-08-20T07:41:15.111Z,20.87
2022-08-20T07:43:43.191Z,20.85
2022-08-20T07:46:10.022Z,20.86
2022-08-20T07:48:39.826Z,20.90
2022-08-20T07:51:08.572Z,20.89
2022-08-20T07:53:37.577Z,20.90
2022-08-20T07:56:06.615Z,20.90
2022-08-20T07:58:35.677Z,20.90
2022-08-20T08:01:02.422Z,20.91
2022-08-20T08:03:40.736Z,20.86
2022-08-20T08:06:19.986Z,20.91
2022-08-20T08:09:04.983Z,20.98
2022-08-20T08:11:34.963Z,21.04
2022-08-20T08:14:02.785Z,21.18
2022-08-20T08:16:30.956Z,21.35
2022-08-20T08:18:58.359Z,21.67
2022-08-20T08:21:26.017Z,21.93
2022-08-20T08:23:53.379Z,22.25
2022-08-20T08:26:21.406Z,22.53
2022-08-20T08:28:47.785Z,22.73
2022-08-20T08:31:15.439Z,22.90
2022-08-20T08:33:42.802Z,23.13
2022-08-20T08:36:12.649Z,23.38
2022-08-20T08:38:41.281Z,23.67
2022-08-20T08:41:23.802Z,23.85
2022-08-20T08:43:53.667Z,24.06
2022-08-20T08:46:25.889Z,24.26
2022-08-20T08:48:54.987Z,24.24
2022-08-20T08:51:45.000Z,24.36
2022-08-20T08:54:19.518Z,24.44
2022-08-20T08:56:50.307Z,24.63
2022-08-20T08:59:18.686Z,24.76
2022-08-20T09:01:55.199Z,24.93
2022-08-20T09:04:23.997Z,25.09
2022-08-20T09:06:54.898Z,25.10
2022-08-20T09:09:26.993Z,25.23
2022-08-20T09:12:02.071Z,25.13
2022-08-20T09:14:28.739Z,25.20
2022-08-20T09:16:55.130Z,25.34
2022-08-20T09:19:21.916Z,25.50
2022-08-20T09:21:48.401Z,25.63
2022-08-20T09:24:15.125Z,25.69
2022-08-20T09:26:41.789Z,25.78
2022-08-20T09:29:08.288Z,25.82
2022-08-20T09:31:35.583Z,25.85
2022-08-20T09:34:04.336Z,25.89
2022-08-20T09:36:31.650Z,26.12
2022-08-20T09:38:59.515Z,26.02
2022-08-20T09:41:25.997Z,25.77
2022-08-20T09:43:52.518Z,25.65
2022-08-20T09:46:18.886Z,25.29
2022-08-20T09:48:45.380Z,25.40
2022-08-20T09:51:11.805Z,25.34
2022-08-20T09:53:38.218Z,25.48
2022-08-20T09:56:04.776Z,25.91
2022-08-20T09:58:38.198Z,26.26
2022-08-20T10:01:13.885Z,26.36
2022-08-20T10:03:42.107Z,26.07
2022-08-20T10:06:08.749Z,25.75
2022-08-20T10:08:35.147Z,25.59
2022-08-20T10:11:01.558Z,25.46
2022-08-20T10:13:28.162Z,25.34
2022-08-20T10:15:54.531Z,25.32
2022-08-20T10:18:20.961Z,25.80
2022-08-20T10:20:47.410Z,25.95
2022-08-20T10:23:13.935Z,26.36
2022-08-20T10:25:42.178Z,26.74
2022-08-20T10:28:08.624Z,27.05
2022-08-20T10:30:35.516Z,27.08
2022-08-20T10:33:01.959Z,27.51
2022-08-20T10:35:28.930Z,27.45
2022-08-20T10:37:55.437Z,27.69
2022-08-20T10:40:22.124Z,27.91
2022-08-20T10:42:48.594Z,28.00
2022-08-20T10:45:16.430Z,28.06
2022-08-20T10:47:43.171Z,27.64
2022-08-20T10:50:13.910Z,27.46
2022-08-20T10:52:40.538Z,27.49
2022-08-20T10:55:07.464Z,27.58
2022-08-20T10:57:33.892Z,27.83
2022-08-20T11:00:01.530Z,27.57
2022-08-20T11:02:29.463Z,27.40
2022-08-20T11:04:56.081Z,27.51
2022-08-20T11:07:50.710Z,27.68
2022-08-20T11:10:16.022Z,27.49
2022-08-20T11:12:43.572Z,27.23
2022-08-20T11:15:13.166Z,27.06
2022-08-20T11:17:42.776Z,27.30
2022-08-20T11:20:12.115Z,27.58
2022-08-20T11:22:38.643Z,27.78
2022-08-20T11:25:06.887Z,27.96
2022-08-20T11:27:40.162Z,28.16
2022-08-20T11:30:09.815Z,28.29
2022-08-20T11:32:36.804Z,28.06
2022-08-20T11:35:18.760Z,28.20
2022-08-20T11:37:51.150Z,28.64
2022-08-20T11:40:18.136Z,28.87
2022-08-20T11:43:12.681Z,28.98
2022-08-20T11:45:31.367Z,29.12
2022-08-20T11:48:04.047Z,29.14
2022-08-20T11:50:30.410Z,29.30
2022-08-20T11:52:56.849Z,28.92
2022-08-20T11:55:23.278Z,28.62
2022-08-20T11:57:56.773Z,28.85
2022-08-20T12:00:31.862Z,28.73
2022-08-20T12:03:05.120Z,28.79
2022-08-20T12:05:32.260Z,28.98
2022-08-20T12:08:01.195Z,29.09
2022-08-20T12:10:28.209Z,29.31
2022-08-20T12:12:55.865Z,29.21
2022-08-20T12:15:23.627Z,29.09
2022-08-20T12:17:49.988Z,29.36
2022-08-20T12:20:16.735Z,29.18
2022-08-20T12:22:44.497Z,29.43
2022-08-20T12:25:12.331Z,29.77
2022-08-20T12:27:38.722Z,29.81
2022-08-20T12:30:09.842Z,29.42
2022-08-20T12:32:36.847Z,29.53
2022-08-20T12:35:05.671Z,29.68
2022-08-20T12:37:32.499Z,29.75
2022-08-20T12:40:00.628Z,30.04
2022-08-20T12:42:30.268Z,29.92
2022-08-20T12:44:58.077Z,29.50
2022-08-20T12:47:28.332Z,29.55
2022-08-20T12:50:03.087Z,29.51
2022-08-20T12:52:32.283Z,29.57
2022-08-20T12:54:59.465Z,29.41
2022-08-20T12:57:34.932Z,29.34
2022-08-20T13:00:24.503Z,29.36
2022-08-20T13:02:52.770Z,29.12
2022-08-20T13:05:20.087Z,29.47
2022-08-20T13:07:47.350Z,29.66
2022-08-20T13:10:18.965Z,29.80
2022-08-20T13:12:45.427Z,29.93
2022-08-20T13:15:12.279Z,29.77
2022-08-20T13:17:39.619Z,29.82
2022-08-20T13:20:09.983Z,29.75
2022-08-20T13:22:36.497Z,30.10
2022-08-20T13:25:04.176Z,30.29
2022-08-20T13:27:30.651Z,30.20
2022-08-20T13:29:58.828Z,29.98
2022-08-20T13:32:25.910Z,29.93
2022-08-20T13:34:52.407Z,29.65
2022-08-20T13:37:28.099Z,29.77
2022-08-20T13:39:55.625Z,29.91
2022-08-20T13:42:22.040Z,29.99
2022-08-20T13:44:48.985Z,29.95
2022-08-20T13:47:24.116Z,29.57
2022-08-20T13:50:04.747Z,29.35
2022-08-20T13:52:32.148Z,29.28
2022-08-20T13:54:59.434Z,29.07
2022-08-20T13:57:26.707Z,28.72
2022-08-20T13:59:56.047Z,28.24
2022-08-20T14:02:23.113Z,28.05
2022-08-20T14:04:51.115Z,27.79
2022-08-20T14:07:31.482Z,28.16
2022-08-20T14:10:02.166Z,28.19
2022-08-20T14:12:30.601Z,28.06
2022-08-20T14:14:57.311Z,28.26
2022-08-20T14:17:32.124Z,28.16
2022-08-20T14:20:13.605Z,28.17
2022-08-20T14:22:41.116Z,28.34
2022-08-20T14:25:09.715Z,28.81
2022-08-20T14:27:36.619Z,28.70
2022-08-20T14:30:07.218Z,28.47
2022-08-20T14:32:33.932Z,28.76
2022-08-20T14:35:02.023Z,28.84
2022-08-20T14:37:31.049Z,28.78
2022-08-20T14:39:58.959Z,28.82
2022-08-20T14:42:27.959Z,28.80
2022-08-20T14:44:55.771Z,28.79
2022-08-20T14:47:31.828Z,28.54
2022-08-20T14:50:02.508Z,28.55
2022-08-20T14:52:32.831Z,28.70
2022-08-20T14:54:59.248Z,28.45
2022-08-20T14:57:25.638Z,28.21
2022-08-20T14:59:52.908Z,28.20
2022-08-20T15:02:19.299Z,28.03
2022-08-20T15:04:51.649Z,27.78
2022-08-20T15:07:28.318Z,27.67
2022-08-20T15:09:55.735Z,27.78
2022-08-20T15:12:23.772Z,27.74
2022-08-20T15:14:50.793Z,27.84
2022-08-20T15:17:20.134Z,28.16
2022-08-20T15:19:46.576Z,28.33
2022-08-20T15:22:13.073Z,28.37
2022-08-20T15:24:39.559Z,28.17
2022-08-20T15:27:13.138Z,28.06
2022-08-20T15:29:40.173Z,27.93
2022-08-20T15:32:08.409Z,28.05
2022-08-20T15:34:38.735Z,27.96
2022-08-20T15:37:14.551Z,27.85
2022-08-20T15:39:42.329Z,27.80
2022-08-20T15:42:10.028Z,27.74
2022-08-20T15:44:37.245Z,27.87
2022-08-20T15:47:24.818Z,27.93
2022-08-20T15:49:56.413Z,28.03
2022-08-20T15:52:25.466Z,27.97
2022-08-20T15:54:54.806Z,27.78
2022-08-20T15:57:52.976Z,27.58
2022-08-20T16:00:33.760Z,27.37
2022-08-20T16:03:25.050Z,27.02
2022-08-20T16:06:01.073Z,26.87
2022-08-20T16:08:47.687Z,26.82
2022-08-20T16:11:16.785Z,26.77
2022-08-20T16:13:57.867Z,26.80
2022-08-20T16:16:46.327Z,26.85
2022-08-20T16:19:27.309Z,26.99
2022-08-20T16:21:57.276Z,26.89
2022-08-20T16:24:24.076Z,26.77
2022-08-20T16:27:13.253Z,27.06
2022-08-20T16:29:51.028Z,27.05
2022-08-20T16:32:33.822Z,27.14
2022-08-20T16:35:24.084Z,26.92
2022-08-20T16:38:09.783Z,26.76
2022-08-20T16:40:49.359Z,26.74
2022-08-20T16:43:21.395Z,26.45
2022-08-20T16:45:59.884Z,26.45
2022-08-20T16:48:33.764Z,26.44
2022-08-20T16:51:08.775Z,26.35
2022-08-20T16:53:35.783Z,26.19
2022-08-20T16:56:02.388Z,26.20
2022-08-20T16:58:28.763Z,26.00
2022-08-20T17:01:14.734Z,25.92
2022-08-20T17:03:50.272Z,25.99
2022-08-20T17:06:25.634Z,25.82
2022-08-20T17:08:52.982Z,25.71
2022-08-20T17:11:33.017Z,25.56
2022-08-20T17:14:13.352Z,25.51
2022-08-20T17:16:42.158Z,25.54
2022-08-20T17:19:34.176Z,25.50
2022-08-20T17:22:14.622Z,25.30
2022-08-20T17:24:41.038Z,25.20
2022-08-20T17:27:15.799Z,25.17
2022-08-20T17:29:54.815Z,25.03
2022-08-20T17:32:26.224Z,24.95
2022-08-20T17:34:55.355Z,24.81
2022-08-20T17:37:25.939Z,24.74
2022-08-20T17:39:55.814Z,24.66
2022-08-20T17:42:27.020Z,24.65
2022-08-20T17:45:04.944Z,24.61
2022-08-20T17:47:36.033Z,24.53
2022-08-20T17:50:16.785Z,24.56
2022-08-20T17:52:51.563Z,24.59
2022-08-20T17:55:19.247Z,24.49
2022-08-20T17:57:48.994Z,24.36
2022-08-20T18:00:23.303Z,24.27
2022-08-20T18:02:54.016Z,24.16
2022-08-20T18:05:21.503Z,24.10
2022-08-20T18:08:20.734Z,24.14
2022-08-20T18:11:01.317Z,24.07
2022-08-20T18:13:48.067Z,24.00
2022-08-20T18:16:25.467Z,23.99
2022-08-20T18:18:58.401Z,23.99
2022-08-20T18:21:58.103Z,23.91
2022-08-20T18:24:33.578Z,23.82
2022-08-20T18:27:04.677Z,23.80
2022-08-20T18:29:42.091Z,23.82
2022-08-20T18:32:28.778Z,23.79
2022-08-20T18:35:08.067Z,23.83
2022-08-20T18:37:34.914Z,23.61
2022-08-20T18:40:14.105Z,23.63
2022-08-20T18:42:41.159Z,23.49
2022-08-20T18:45:08.320Z,23.41
2022-08-20T18:47:34.825Z,23.23
2022-08-20T18:50:16.410Z,23.32
2022-08-20T18:52:51.095Z,23.26
2022-08-20T18:55:37.013Z,23.19
2022-08-20T18:58:28.131Z,23.06
2022-08-20T19:00:54.864Z,23.02
2022-08-20T19:03:36.658Z,22.97
2022-08-20T19:06:28.527Z,22.95
2022-08-20T19:09:17.454Z,22.97
2022-08-20T19:12:00.556Z,22.92
2022-08-20T19:14:58.166Z,22.97
2022-08-20T19:17:25.361Z,22.85
2022-08-20T19:20:11.046Z,22.92
2022-08-20T19:22:38.622Z,22.89
2022-08-20T19:25:05.660Z,22.86
2022-08-20T19:27:32.496Z,22.82
2022-08-20T19:29:59.053Z,22.74
2022-08-20T19:32:29.598Z,22.69
2022-08-20T19:35:03.466Z,22.67
2022-08-20T19:37:50.490Z,22.59
2022-08-20T19:40:28.394Z,22.54
2022-08-20T19:42:58.251Z,22.40
2022-08-20T19:45:39.311Z,22.35
2022-08-20T19:48:14.932Z,22.24
2022-08-20T19:50:51.538Z,22.19
2022-08-20T19:53:35.611Z,22.11
2022-08-20T19:56:23.278Z,22.08
2022-08-20T19:59:06.556Z,22.02
2022-08-20T20:01:33.233Z,21.95
2022-08-20T20:04:03.760Z,21.89
2022-08-20T20:06:36.170Z,21.84
2022-08-20T20:09:08.517Z,21.79
2022-08-20T20:11:37.827Z,21.69
2022-08-20T20:14:08.634Z,21.66
2022-08-20T20:16:37.321Z,21.57
2022-08-20T20:19:25.702Z,21.55
2022-08-20T20:22:03.188Z,21.46
2022-08-20T20:24:39.841Z,21.37
2022-08-20T20:27:13.640Z,21.27
2022-08-20T20:29:52.616Z,21.18
2022-08-20T20:32:21.661Z,21.14
2022-08-20T20:34:59.100Z,21.09
2022-08-20T20:37:42.649Z,21.03
2022-08-20T20:40:22.953Z,20.99
2022-08-20T20:43:01.204Z,20.96
2022-08-20T20:45:34.822Z,20.86
2022-08-20T20:48:13.851Z,20.79
2022-08-20T20:50:40.348Z,20.71
2022-08-20T20:53:06.848Z,20.68
2022-08-20T20:55:35.602Z,20.66
2022-08-20T20:58:03.164Z,20.66
2022-08-20T21:00:32.502Z,20.63
2022-08-20T21:03:00.265Z,20.50
2022-08-20T21:05:32.104Z,20.52
2022-08-20T21:08:01.500Z,20.48
2022-08-20T21:10:34.777Z,20.41
2022-08-20T21:13:03.446Z,20.37
2022-08-20T21:15:30.935Z,20.39
2022-08-20T21:18:02.061Z,20.37
2022-08-20T21:20:28.847Z,20.26
2022-08-20T21:22:58.894Z,20.23
2022-08-20T21:25:28.708Z,20.18
2022-08-20T21:27:55.695Z,20.08
2022-08-20T21:30:23.471Z,20.02
2022-08-20T21:32:50.128Z,19.95
2022-08-20T21:35:17.214Z,19.87
2022-08-20T21:37:43.822Z,19.81
2022-08-20T21:40:12.007Z,19.78
2022-08-20T21:42:39.182Z,19.76
2022-08-20T21:45:12.158Z,19.67
2022-08-20T21:47:38.548Z,19.53
2022-08-20T21:50:05.786Z,19.47
2022-08-20T21:52:32.626Z,19.39
2022-08-20T21:55:01.991Z,19.36
2022-08-20T21:57:31.172Z,19.34
2022-08-20T21:59:58.263Z,19.26
2022-08-20T22:02:26.005Z,19.27
2022-08-20T22:04:54.036Z,19.23
2022-08-20T22:07:21.079Z,19.20
2022-08-20T22:09:47.534Z,19.13
2022-08-20T22:12:17.646Z,19.17
2022-08-20T22:14:44.687Z,19.06
2022-08-20T22:17:11.251Z,19.05
2022-08-20T22:19:37.595Z,19.00
2022-08-20T22:22:04.234Z,18.94
2022-08-20T22:24:31.195Z,18.92
2022-08-20T22:26:57.983Z,18.91
2022-08-20T22:29:24.631Z,18.84
2022-08-20T22:31:51.262Z,18.81
2022-08-20T22:34:20.375Z,18.77
2022-08-20T22:36:47.862Z,18.71
2022-08-20T22:39:14.611Z,18.75
2022-08-20T22:41:41.003Z,18.67
2022-08-20T22:44:07.527Z,18.63
2022-08-20T22:46:37.465Z,18.65
2022-08-20T22:49:06.787Z,18.65
2022-08-20T22:51:36.856Z,18.63
2022-08-20T22:54:10.348Z,18.55
2022-08-20T22:56:37.198Z,18.56
2022-08-20T22:59:05.304Z,18.52
2022-08-20T23:01:31.842Z,18.45
2022-08-20T23:04:04.537Z,18.55
2022-08-20T23:06:31.826Z,18.51
2022-08-20T23:08:58.224Z,18.45
2022-08-20T23:11:25.727Z,18.40
2022-08-20T23:13:52.159Z,18.36
2022-08-20T23:16:18.683Z,18.29
2022-08-20T23:18:45.164Z,18.26
2022-08-20T23:21:11.543Z,18.17
2022-08-20T23:23:38.122Z,18.17
2022-08-20T23:26:05.770Z,18.12
2022-08-20T23:28:32.471Z,18.07
2022-08-20T23:30:58.881Z,18.02
2022-08-20T23:33:25.527Z,17.98
2022-08-20T23:35:51.973Z,17.92
2022-08-20T23:38:20.324Z,17.85
2022-08-20T23:40:46.656Z,17.93
2022-08-20T23:43:13.112Z,17.88
2022-08-20T23:45:40.830Z,17.87
2022-08-20T23:48:08.241Z,17.82
2022-08-20T23:50:35.382Z,17.79
2022-08-20T23:53:01.882Z,17.71
2022-08-20T23:55:28.308Z,17.66
2022-08-20T23:57:54.867Z,17.68
